sensor_id;sensor_type;location;lat;lon;timestamp;temperature;humidity
13052;DHT22;6592;47.484;9.726;2022-11-11T00:00:59;7.60;99.90
13052;DHT22;6592;47.484;9.726;2022-11-11T00:03:28;7.60;99.90
13052;DHT22;6592;47.484;9.726;2022-11-11T00:06:00;7.60;99.90
13052;DHT22;6592;47.484;9.726;2022-11-11T00:08:29;7.60;99.90
13052;DHT22;6592;47.484;9.726;2022-11-11T00:11:00;7.60;99.90
13052;DHT22;6592;47.484;9.726;2022-11-11T00:13:29;7.60;99.90
13052;DHT22;6592;47.484;9.726;2022-11-11T00:16:02;7.50;99.90
13052;DHT22;6592;47.484;9.726;2022-11-11T00:18:30;7.50;99.90
13052;DHT22;6592;47.484;9.726;2022-11-11T00:21:17;7.50;99.90
13052;DHT22;6592;47.484;9.726;2022-11-11T00:24:02;7.40;99.90
13052;DHT22;6592;47.484;9.726;2022-11-11T00:26:44;7.40;99.90
13052;DHT22;6592;47.484;9.726;2022-11-11T00:29:12;7.40;99.90
13052;DHT22;6592;47.484;9.726;2022-11-11T00:31:40;7.30;99.90
13052;DHT22;6592;47.484;9.726;2022-11-11T00:34:22;7.30;99.90
13052;DHT22;6592;47.484;9.726;2022-11-11T00:36:51;7.30;99.90
13052;DHT22;6592;47.484;9.726;2022-11-11T00:39:18;7.30;99.90
13052;DHT22;6592;47.484;9.726;2022-11-11T00:41:46;7.30;99.90
13052;DHT22;6592;47.484;9.726;2022-11-11T00:44:14;7.30;99.90
13052;DHT22;6592;47.484;9.726;2022-11-11T00:46:42;7.20;99.90
13052;DHT22;6592;47.484;9.726;2022-11-11T00:49:28;7.20;99.90
13052;DHT22;6592;47.484;9.726;2022-11-11T00:52:15;7.20;99.90
13052;DHT22;6592;47.484;9.726;2022-11-11T00:54:43;7.10;99.90
13052;DHT22;6592;47.484;9.726;2022-11-11T00:57:11;7.10;99.90
13052;DHT22;6592;47.484;9.726;2022-11-11T00:59:39;7.10;99.90
13052;DHT22;6592;47.484;9.726;2022-11-11T01:02:07;6.70;99.90
13052;DHT22;6592;47.484;9.726;2022-11-11T01:04:35;7.10;99.90
13052;DHT22;6592;47.484;9.726;2022-11-11T01:07:03;7.00;99.90
13052;DHT22;6592;47.484;9.726;2022-11-11T01:09:33;7.00;99.90
13052;DHT22;6592;47.484;9.726;2022-11-11T01:12:01;7.10;99.90
13052;DHT22;6592;47.484;9.726;2022-11-11T01:14:29;7.10;99.90
13052;DHT22;6592;47.484;9.726;2022-11-11T01:16:57;7.10;99.90
13052;DHT22;6592;47.484;9.726;2022-11-11T01:19:25;7.10;99.90
13052;DHT22;6592;47.484;9.726;2022-11-11T01:21:53;7.10;99.90
13052;DHT22;6592;47.484;9.726;2022-11-11T01:24:21;7.10;99.90
13052;DHT22;6592;47.484;9.726;2022-11-11T01:26:51;7.10;99.90
13052;DHT22;6592;47.484;9.726;2022-11-11T01:29:19;7.10;99.90
13052;DHT22;6592;47.484;9.726;2022-11-11T01:31:47;7.00;99.90
13052;DHT22;6592;47.484;9.726;2022-11-11T01:34:15;7.00;99.90
13052;DHT22;6592;47.484;9.726;2022-11-11T01:36:43;7.00;99.90
13052;DHT22;6592;47.484;9.726;2022-11-11T01:39:11;6.90;99.90
13052;DHT22;6592;47.484;9.726;2022-11-11T01:41:39;6.90;99.90
13052;DHT22;6592;47.484;9.726;2022-11-11T01:44:16;6.80;99.90
13052;DHT22;6592;47.484;9.726;2022-11-11T01:46:46;6.70;99.90
13052;DHT22;6592;47.484;9.726;2022-11-11T01:49:17;6.70;99.90
13052;DHT22;6592;47.484;9.726;2022-11-11T01:51:49;6.80;99.90
13052;DHT22;6592;47.484;9.726;2022-11-11T01:54:20;6.80;99.90
13052;DHT22;6592;47.484;9.726;2022-11-11T01:56:49;6.90;99.90
13052;DHT22;6592;47.484;9.726;2022-11-11T01:59:19;7.00;99.90
13052;DHT22;6592;47.484;9.726;2022-11-11T02:01:48;7.00;99.90
13052;DHT22;6592;47.484;9.726;2022-11-11T02:04:17;7.10;99.90
13052;DHT22;6592;47.484;9.726;2022-11-11T02:07:03;7.00;99.90
13052;DHT22;6592;47.484;9.726;2022-11-11T02:09:33;7.10;99.90
13052;DHT22;6592;47.484;9.726;2022-11-11T02:12:02;7.10;99.90
13052;DHT22;6592;47.484;9.726;2022-11-11T02:14:59;7.10;99.90
13052;DHT22;6592;47.484;9.726;2022-11-11T02:17:28;7.10;99.90
13052;DHT22;6592;47.484;9.726;2022-11-11T02:19:57;7.00;99.90
13052;DHT22;6592;47.484;9.726;2022-11-11T02:22:35;6.90;99.90
13052;DHT22;6592;47.484;9.726;2022-11-11T02:25:07;6.80;99.90
13052;DHT22;6592;47.484;9.726;2022-11-11T02:27:37;6.70;99.90
13052;DHT22;6592;47.484;9.726;2022-11-11T02:30:08;6.70;99.90
13052;DHT22;6592;47.484;9.726;2022-11-11T02:32:41;6.60;99.90
13052;DHT22;6592;47.484;9.726;2022-11-11T02:35:11;6.60;99.90
13052;DHT22;6592;47.484;9.726;2022-11-11T02:37:40;6.50;99.90
13052;DHT22;6592;47.484;9.726;2022-11-11T02:40:12;6.50;99.90
13052;DHT22;6592;47.484;9.726;2022-11-11T02:42:41;6.50;99.90
13052;DHT22;6592;47.484;9.726;2022-11-11T02:45:09;6.40;99.90
13052;DHT22;6592;47.484;9.726;2022-11-11T02:47:37;6.40;99.90
13052;DHT22;6592;47.484;9.726;2022-11-11T02:50:06;6.30;99.90
13052;DHT22;6592;47.484;9.726;2022-11-11T02:52:34;6.30;99.90
13052;DHT22;6592;47.484;9.726;2022-11-11T02:55:03;6.20;99.90
13052;DHT22;6592;47.484;9.726;2022-11-11T02:57:32;6.20;99.90
13052;DHT22;6592;47.484;9.726;2022-11-11T03:00:00;6.10;99.90
13052;DHT22;6592;47.484;9.726;2022-11-11T03:02:28;6.10;99.90
13052;DHT22;6592;47.484;9.726;2022-11-11T03:04:57;6.00;99.90
13052;DHT22;6592;47.484;9.726;2022-11-11T03:07:25;6.00;99.90
13052;DHT22;6592;47.484;9.726;2022-11-11T03:09:53;6.00;99.90
13052;DHT22;6592;47.484;9.726;2022-11-11T03:12:21;5.90;99.90
13052;DHT22;6592;47.484;9.726;2022-11-11T03:14:51;5.90;99.90
13052;DHT22;6592;47.484;9.726;2022-11-11T03:17:20;5.70;99.90
13052;DHT22;6592;47.484;9.726;2022-11-11T03:20:06;5.80;99.90
13052;DHT22;6592;47.484;9.726;2022-11-11T03:22:59;5.40;99.90
13052;DHT22;6592;47.484;9.726;2022-11-11T03:25:27;5.80;99.90
13052;DHT22;6592;47.484;9.726;2022-11-11T03:28:07;5.70;99.90
13052;DHT22;6592;47.484;9.726;2022-11-11T03:30:38;5.70;99.90
13052;DHT22;6592;47.484;9.726;2022-11-11T03:33:06;5.70;99.90
13052;DHT22;6592;47.484;9.726;2022-11-11T03:35:34;5.70;99.90
13052;DHT22;6592;47.484;9.726;2022-11-11T03:38:03;5.60;99.90
13052;DHT22;6592;47.484;9.726;2022-11-11T03:40:49;5.60;99.90
13052;DHT22;6592;47.484;9.726;2022-11-11T03:43:18;5.60;99.90
13052;DHT22;6592;47.484;9.726;2022-11-11T03:45:48;5.60;99.90
13052;DHT22;6592;47.484;9.726;2022-11-11T03:48:16;5.60;99.90
13052;DHT22;6592;47.484;9.726;2022-11-11T03:50:45;5.50;99.90
13052;DHT22;6592;47.484;9.726;2022-11-11T03:53:14;5.50;99.90
13052;DHT22;6592;47.484;9.726;2022-11-11T03:55:42;5.50;99.90
13052;DHT22;6592;47.484;9.726;2022-11-11T03:58:10;5.50;99.90
13052;DHT22;6592;47.484;9.726;2022-11-11T04:00:38;5.50;99.90
13052;DHT22;6592;47.484;9.726;2022-11-11T04:03:09;5.50;99.90
13052;DHT22;6592;47.484;9.726;2022-11-11T04:05:55;5.50;99.90
13052;DHT22;6592;47.484;9.726;2022-11-11T04:08:41;5.50;99.90
13052;DHT22;6592;47.484;9.726;2022-11-11T04:11:26;5.40;99.90
13052;DHT22;6592;47.484;9.726;2022-11-11T04:13:55;5.40;99.90
13052;DHT22;6592;47.484;9.726;2022-11-11T04:16:41;5.40;99.90
13052;DHT22;6592;47.484;9.726;2022-11-11T04:19:11;5.40;99.90
13052;DHT22;6592;47.484;9.726;2022-11-11T04:21:56;5.30;99.90
13052;DHT22;6592;47.484;9.726;2022-11-11T04:24:24;5.30;99.90
13052;DHT22;6592;47.484;9.726;2022-11-11T04:27:10;5.30;99.90
13052;DHT22;6592;47.484;9.726;2022-11-11T04:29:38;5.30;99.90
13052;DHT22;6592;47.484;9.726;2022-11-11T04:32:06;5.30;99.90
13052;DHT22;6592;47.484;9.726;2022-11-11T04:34:54;5.30;99.90
13052;DHT22;6592;47.484;9.726;2022-11-11T04:37:22;5.30;99.90
13052;DHT22;6592;47.484;9.726;2022-11-11T04:39:51;5.30;99.90
13052;DHT22;6592;47.484;9.726;2022-11-11T04:42:36;5.20;99.90
13052;DHT22;6592;47.484;9.726;2022-11-11T04:45:05;5.20;99.90
13052;DHT22;6592;47.484;9.726;2022-11-11T04:47:51;5.20;99.90
13052;DHT22;6592;47.484;9.726;2022-11-11T04:50:21;5.10;99.90
13052;DHT22;6592;47.484;9.726;2022-11-11T04:52:49;5.10;99.90
13052;DHT22;6592;47.484;9.726;2022-11-11T04:55:17;5.10;99.90
13052;DHT22;6592;47.484;9.726;2022-11-11T04:58:02;5.10;99.90
13052;DHT22;6592;47.484;9.726;2022-11-11T05:00:30;5.10;99.90
13052;DHT22;6592;47.484;9.726;2022-11-11T05:02:58;5.20;99.90
13052;DHT22;6592;47.484;9.726;2022-11-11T05:05:46;5.20;99.90
13052;DHT22;6592;47.484;9.726;2022-11-11T05:08:32;5.20;99.90
13052;DHT22;6592;47.484;9.726;2022-11-11T05:11:18;5.20;99.90
13052;DHT22;6592;47.484;9.726;2022-11-11T05:13:46;5.20;99.90
13052;DHT22;6592;47.484;9.726;2022-11-11T05:16:32;5.10;99.90
13052;DHT22;6592;47.484;9.726;2022-11-11T05:19:18;5.10;99.90
13052;DHT22;6592;47.484;9.726;2022-11-11T05:22:07;5.10;99.90
13052;DHT22;6592;47.484;9.726;2022-11-11T05:24:36;5.10;99.90
13052;DHT22;6592;47.484;9.726;2022-11-11T05:27:21;5.10;99.90
13052;DHT22;6592;47.484;9.726;2022-11-11T05:29:49;5.10;99.90
13052;DHT22;6592;47.484;9.726;2022-11-11T05:32:17;5.00;99.90
13052;DHT22;6592;47.484;9.726;2022-11-11T05:34:46;5.10;99.90
13052;DHT22;6592;47.484;9.726;2022-11-11T05:37:15;5.00;99.90
13052;DHT22;6592;47.484;9.726;2022-11-11T05:39:43;5.00;99.90
13052;DHT22;6592;47.484;9.726;2022-11-11T05:42:11;5.00;99.90
13052;DHT22;6592;47.484;9.726;2022-11-11T05:44:39;5.00;99.90
13052;DHT22;6592;47.484;9.726;2022-11-11T05:47:07;4.90;99.90
13052;DHT22;6592;47.484;9.726;2022-11-11T05:49:35;4.90;99.90
13052;DHT22;6592;47.484;9.726;2022-11-11T05:52:04;4.90;99.90
13052;DHT22;6592;47.484;9.726;2022-11-11T05:54:33;4.90;99.90
13052;DHT22;6592;47.484;9.726;2022-11-11T05:57:01;4.90;99.90
13052;DHT22;6592;47.484;9.726;2022-11-11T05:59:30;4.80;99.90
13052;DHT22;6592;47.484;9.726;2022-11-11T06:01:58;4.80;99.90
13052;DHT22;6592;47.484;9.726;2022-11-11T06:04:26;4.80;99.90
13052;DHT22;6592;47.484;9.726;2022-11-11T06:06:54;4.80;99.90
13052;DHT22;6592;47.484;9.726;2022-11-11T06:09:22;4.90;99.90
13052;DHT22;6592;47.484;9.726;2022-11-11T06:11:52;4.90;99.90
13052;DHT22;6592;47.484;9.726;2022-11-11T06:14:20;5.00;99.90
13052;DHT22;6592;47.484;9.726;2022-11-11T06:16:47;5.10;99.90
13052;DHT22;6592;47.484;9.726;2022-11-11T06:19:16;5.20;99.90
13052;DHT22;6592;47.484;9.726;2022-11-11T06:21:43;5.30;99.90
13052;DHT22;6592;47.484;9.726;2022-11-11T06:24:23;5.40;99.90
13052;DHT22;6592;47.484;9.726;2022-11-11T06:26:54;5.50;99.90
13052;DHT22;6592;47.484;9.726;2022-11-11T06:29:22;5.40;99.90
13052;DHT22;6592;47.484;9.726;2022-11-11T06:31:50;5.60;99.90
13052;DHT22;6592;47.484;9.726;2022-11-11T06:34:18;5.70;99.90
13052;DHT22;6592;47.484;9.726;2022-11-11T06:36:46;5.80;99.90
13052;DHT22;6592;47.484;9.726;2022-11-11T06:39:14;6.00;99.90
13052;DHT22;6592;47.484;9.726;2022-11-11T06:41:42;6.00;99.90
13052;DHT22;6592;47.484;9.726;2022-11-11T06:44:11;6.00;99.90
13052;DHT22;6592;47.484;9.726;2022-11-11T06:46:39;6.00;99.90
13052;DHT22;6592;47.484;9.726;2022-11-11T06:49:07;6.00;99.90
13052;DHT22;6592;47.484;9.726;2022-11-11T06:51:35;6.00;99.90
13052;DHT22;6592;47.484;9.726;2022-11-11T06:54:03;5.90;99.90
13052;DHT22;6592;47.484;9.726;2022-11-11T06:56:31;5.80;99.90
13052;DHT22;6592;47.484;9.726;2022-11-11T06:58:59;5.80;99.90
13052;DHT22;6592;47.484;9.726;2022-11-11T07:01:28;5.70;99.90
13052;DHT22;6592;47.484;9.726;2022-11-11T07:03:57;5.80;99.90
13052;DHT22;6592;47.484;9.726;2022-11-11T07:06:24;5.80;99.90
13052;DHT22;6592;47.484;9.726;2022-11-11T07:08:52;5.90;99.90
13052;DHT22;6592;47.484;9.726;2022-11-11T07:11:20;5.90;99.90
13052;DHT22;6592;47.484;9.726;2022-11-11T07:13:48;6.00;99.90
13052;DHT22;6592;47.484;9.726;2022-11-11T07:16:16;6.00;99.90
13052;DHT22;6592;47.484;9.726;2022-11-11T07:18:46;6.00;99.90
13052;DHT22;6592;47.484;9.726;2022-11-11T07:21:14;5.90;99.90
13052;DHT22;6592;47.484;9.726;2022-11-11T07:23:42;6.20;99.90
13052;DHT22;6592;47.484;9.726;2022-11-11T07:26:09;6.30;99.90
13052;DHT22;6592;47.484;9.726;2022-11-11T07:28:37;6.30;99.90
13052;DHT22;6592;47.484;9.726;2022-11-11T07:31:05;6.40;99.90
13052;DHT22;6592;47.484;9.726;2022-11-11T07:33:33;6.50;99.90
13052;DHT22;6592;47.484;9.726;2022-11-11T07:36:03;6.60;99.90
13052;DHT22;6592;47.484;9.726;2022-11-11T07:38:31;6.70;99.90
13052;DHT22;6592;47.484;9.726;2022-11-11T07:40:59;6.80;99.90
13052;DHT22;6592;47.484;9.726;2022-11-11T07:43:26;6.90;99.90
13052;DHT22;6592;47.484;9.726;2022-11-11T07:45:54;7.00;99.90
13052;DHT22;6592;47.484;9.726;2022-11-11T07:48:22;7.10;99.90
13052;DHT22;6592;47.484;9.726;2022-11-11T07:50:51;7.20;99.90
13052;DHT22;6592;47.484;9.726;2022-11-11T07:53:21;7.20;99.90
13052;DHT22;6592;47.484;9.726;2022-11-11T07:55:50;7.30;99.90
13052;DHT22;6592;47.484;9.726;2022-11-11T07:58:18;7.10;99.90
13052;DHT22;6592;47.484;9.726;2022-11-11T08:00:46;7.10;99.90
13052;DHT22;6592;47.484;9.726;2022-11-11T08:03:14;7.20;99.90
13052;DHT22;6592;47.484;9.726;2022-11-11T08:05:42;7.20;99.90
13052;DHT22;6592;47.484;9.726;2022-11-11T08:08:10;7.30;99.90
13052;DHT22;6592;47.484;9.726;2022-11-11T08:10:39;7.50;99.90
13052;DHT22;6592;47.484;9.726;2022-11-11T08:13:08;7.60;99.90
13052;DHT22;6592;47.484;9.726;2022-11-11T08:15:54;7.70;99.90
13052;DHT22;6592;47.484;9.726;2022-11-11T08:18:22;7.90;99.90
13052;DHT22;6592;47.484;9.726;2022-11-11T08:20:50;8.30;99.90
13052;DHT22;6592;47.484;9.726;2022-11-11T08:23:20;8.70;99.90
13052;DHT22;6592;47.484;9.726;2022-11-11T08:26:19;9.20;99.90
13052;DHT22;6592;47.484;9.726;2022-11-11T08:28:55;9.70;99.90
13052;DHT22;6592;47.484;9.726;2022-11-11T08:31:23;10.10;99.90
13052;DHT22;6592;47.484;9.726;2022-11-11T08:33:51;10.30;99.90
13052;DHT22;6592;47.484;9.726;2022-11-11T08:36:19;10.50;99.90
13052;DHT22;6592;47.484;9.726;2022-11-11T08:38:49;10.70;99.90
13052;DHT22;6592;47.484;9.726;2022-11-11T08:41:17;10.90;99.90
13052;DHT22;6592;47.484;9.726;2022-11-11T08:43:48;11.30;99.90
13052;DHT22;6592;47.484;9.726;2022-11-11T08:46:17;11.50;99.90
13052;DHT22;6592;47.484;9.726;2022-11-11T08:48:45;11.90;99.90
13052;DHT22;6592;47.484;9.726;2022-11-11T08:51:14;12.10;99.90
13052;DHT22;6592;47.484;9.726;2022-11-11T08:53:42;12.30;99.90
13052;DHT22;6592;47.484;9.726;2022-11-11T08:56:10;12.40;99.90
13052;DHT22;6592;47.484;9.726;2022-11-11T08:58:38;12.70;99.90
13052;DHT22;6592;47.484;9.726;2022-11-11T09:01:10;13.10;99.90
13052;DHT22;6592;47.484;9.726;2022-11-11T09:03:39;13.30;99.90
13052;DHT22;6592;47.484;9.726;2022-11-11T09:06:09;13.50;99.90
13052;DHT22;6592;47.484;9.726;2022-11-11T09:08:40;13.60;99.90
13052;DHT22;6592;47.484;9.726;2022-11-11T09:11:08;13.60;99.90
13052;DHT22;6592;47.484;9.726;2022-11-11T09:13:36;13.60;99.90
13052;DHT22;6592;47.484;9.726;2022-11-11T09:16:04;13.70;99.90
13052;DHT22;6592;47.484;9.726;2022-11-11T09:18:33;13.80;99.90
13052;DHT22;6592;47.484;9.726;2022-11-11T09:21:01;14.00;99.90
13052;DHT22;6592;47.484;9.726;2022-11-11T09:23:30;14.20;99.90
13052;DHT22;6592;47.484;9.726;2022-11-11T09:25:59;14.40;99.90
13052;DHT22;6592;47.484;9.726;2022-11-11T09:28:29;14.50;99.90
13052;DHT22;6592;47.484;9.726;2022-11-11T09:30:59;14.60;99.90
13052;DHT22;6592;47.484;9.726;2022-11-11T09:33:48;14.30;99.90
13052;DHT22;6592;47.484;9.726;2022-11-11T09:36:16;14.30;99.90
13052;DHT22;6592;47.484;9.726;2022-11-11T09:38:44;14.50;99.90
13052;DHT22;6592;47.484;9.726;2022-11-11T09:41:14;14.90;99.90
13052;DHT22;6592;47.484;9.726;2022-11-11T09:43:46;15.10;99.90
13052;DHT22;6592;47.484;9.726;2022-11-11T09:46:20;15.10;99.90
13052;DHT22;6592;47.484;9.726;2022-11-11T09:48:55;14.90;99.90
13052;DHT22;6592;47.484;9.726;2022-11-11T09:51:25;14.90;99.90
13052;DHT22;6592;47.484;9.726;2022-11-11T09:53:56;15.00;99.90
13052;DHT22;6592;47.484;9.726;2022-11-11T09:56:26;15.20;99.90
13052;DHT22;6592;47.484;9.726;2022-11-11T09:58:58;15.50;99.90
13052;DHT22;6592;47.484;9.726;2022-11-11T10:01:28;15.40;99.90
13052;DHT22;6592;47.484;9.726;2022-11-11T10:03:59;15.60;99.90
13052;DHT22;6592;47.484;9.726;2022-11-11T10:06:28;15.70;99.90
13052;DHT22;6592;47.484;9.726;2022-11-11T10:08:58;16.50;99.90
13052;DHT22;6592;47.484;9.726;2022-11-11T10:11:31;17.10;99.90
13052;DHT22;6592;47.484;9.726;2022-11-11T10:14:02;17.80;99.90
13052;DHT22;6592;47.484;9.726;2022-11-11T10:16:32;18.50;99.90
13052;DHT22;6592;47.484;9.726;2022-11-11T10:19:10;18.90;99.90
13052;DHT22;6592;47.484;9.726;2022-11-11T10:21:41;18.80;99.90
13052;DHT22;6592;47.484;9.726;2022-11-11T10:24:31;19.50;99.90
13052;DHT22;6592;47.484;9.726;2022-11-11T10:27:15;20.30;99.90
13052;DHT22;6592;47.484;9.726;2022-11-11T10:29:45;20.70;99.90
13052;DHT22;6592;47.484;9.726;2022-11-11T10:32:15;20.80;99.90
13052;DHT22;6592;47.484;9.726;2022-11-11T10:34:45;20.90;99.90
13052;DHT22;6592;47.484;9.726;2022-11-11T10:37:16;21.20;99.90
13052;DHT22;6592;47.484;9.726;2022-11-11T10:39:49;21.10;99.90
13052;DHT22;6592;47.484;9.726;2022-11-11T10:42:20;21.20;99.90
13052;DHT22;6592;47.484;9.726;2022-11-11T10:44:49;21.20;99.90
13052;DHT22;6592;47.484;9.726;2022-11-11T10:47:18;21.40;99.90
13052;DHT22;6592;47.484;9.726;2022-11-11T10:49:50;21.60;99.90
13052;DHT22;6592;47.484;9.726;2022-11-11T10:52:20;21.90;99.90
13052;DHT22;6592;47.484;9.726;2022-11-11T10:54:50;22.40;99.90
13052;DHT22;6592;47.484;9.726;2022-11-11T10:57:21;22.60;99.90
13052;DHT22;6592;47.484;9.726;2022-11-11T10:59:50;22.90;99.90
13052;DHT22;6592;47.484;9.726;2022-11-11T11:02:20;22.90;99.90
13052;DHT22;6592;47.484;9.726;2022-11-11T11:04:51;22.90;99.90
13052;DHT22;6592;47.484;9.726;2022-11-11T11:07:21;22.90;99.90
13052;DHT22;6592;47.484;9.726;2022-11-11T11:09:52;23.00;99.40
13052;DHT22;6592;47.484;9.726;2022-11-11T11:12:23;23.10;98.60
13052;DHT22;6592;47.484;9.726;2022-11-11T11:14:52;22.80;98.90
13052;DHT22;6592;47.484;9.726;2022-11-11T11:17:21;22.80;99.20
13052;DHT22;6592;47.484;9.726;2022-11-11T11:20:05;23.10;99.90
13052;DHT22;6592;47.484;9.726;2022-11-11T11:22:43;23.20;98.90
13052;DHT22;6592;47.484;9.726;2022-11-11T11:25:12;22.90;97.30
13052;DHT22;6592;47.484;9.726;2022-11-11T11:27:40;22.30;98.80
13052;DHT22;6592;47.484;9.726;2022-11-11T11:30:11;22.40;99.40
13052;DHT22;6592;47.484;9.726;2022-11-11T11:32:49;22.30;98.70
13052;DHT22;6592;47.484;9.726;2022-11-11T11:35:29;22.30;98.70
13052;DHT22;6592;47.484;9.726;2022-11-11T11:37:58;22.50;99.90
13052;DHT22;6592;47.484;9.726;2022-11-11T11:40:25;22.50;98.80
13052;DHT22;6592;47.484;9.726;2022-11-11T11:42:54;22.70;99.80
13052;DHT22;6592;47.484;9.726;2022-11-11T11:45:23;22.60;99.50
13052;DHT22;6592;47.484;9.726;2022-11-11T11:47:56;22.20;99.90
13052;DHT22;6592;47.484;9.726;2022-11-11T11:50:51;21.90;99.90
13052;DHT22;6592;47.484;9.726;2022-11-11T11:53:32;21.50;99.90
13052;DHT22;6592;47.484;9.726;2022-11-11T11:56:03;21.20;99.90
13052;DHT22;6592;47.484;9.726;2022-11-11T11:58:36;20.50;99.90
13052;DHT22;6592;47.484;9.726;2022-11-11T12:01:10;20.70;99.90
13052;DHT22;6592;47.484;9.726;2022-11-11T12:03:49;20.50;99.90
13052;DHT22;6592;47.484;9.726;2022-11-11T12:06:24;20.80;99.90
13052;DHT22;6592;47.484;9.726;2022-11-11T12:08:56;20.90;99.90
13052;DHT22;6592;47.484;9.726;2022-11-11T12:11:30;21.20;99.90
13052;DHT22;6592;47.484;9.726;2022-11-11T12:14:06;21.70;99.90
13052;DHT22;6592;47.484;9.726;2022-11-11T12:16:38;22.30;99.90
13052;DHT22;6592;47.484;9.726;2022-11-11T12:19:25;22.90;99.90
13052;DHT22;6592;47.484;9.726;2022-11-11T12:22:00;23.50;98.90
13052;DHT22;6592;47.484;9.726;2022-11-11T12:24:37;24.00;98.90
13052;DHT22;6592;47.484;9.726;2022-11-11T12:27:11;24.10;97.60
13052;DHT22;6592;47.484;9.726;2022-11-11T12:29:47;24.50;95.90
13052;DHT22;6592;47.484;9.726;2022-11-11T12:32:25;24.80;97.30
13052;DHT22;6592;47.484;9.726;2022-11-11T12:35:02;24.70;93.60
13052;DHT22;6592;47.484;9.726;2022-11-11T12:37:35;25.00;94.00
13052;DHT22;6592;47.484;9.726;2022-11-11T12:40:13;24.50;93.90
13052;DHT22;6592;47.484;9.726;2022-11-11T12:42:46;24.80;94.90
13052;DHT22;6592;47.484;9.726;2022-11-11T12:45:19;24.60;93.60
13052;DHT22;6592;47.484;9.726;2022-11-11T12:47:51;24.90;93.60
13052;DHT22;6592;47.484;9.726;2022-11-11T12:50:25;24.80;94.40
13052;DHT22;6592;47.484;9.726;2022-11-11T12:53:01;24.80;93.10
13052;DHT22;6592;47.484;9.726;2022-11-11T12:55:34;24.70;93.10
13052;DHT22;6592;47.484;9.726;2022-11-11T12:58:06;24.40;93.10
13052;DHT22;6592;47.484;9.726;2022-11-11T13:00:37;24.10;93.60
13052;DHT22;6592;47.484;9.726;2022-11-11T13:05:55;23.90;94.70
13052;DHT22;6592;47.484;9.726;2022-11-11T13:11:14;24.20;93.90
13052;DHT22;6592;47.484;9.726;2022-11-11T13:13:50;24.20;93.20
13052;DHT22;6592;47.484;9.726;2022-11-11T13:16:21;24.20;93.50
13052;DHT22;6592;47.484;9.726;2022-11-11T13:18:50;23.90;93.30
13052;DHT22;6592;47.484;9.726;2022-11-11T13:21:21;24.20;94.60
13052;DHT22;6592;47.484;9.726;2022-11-11T13:23:51;24.20;92.80
13052;DHT22;6592;47.484;9.726;2022-11-11T13:26:24;24.60;92.50
13052;DHT22;6592;47.484;9.726;2022-11-11T13:28:55;24.60;92.70
13052;DHT22;6592;47.484;9.726;2022-11-11T13:31:29;24.60;92.40
13052;DHT22;6592;47.484;9.726;2022-11-11T13:34:01;24.70;92.80
13052;DHT22;6592;47.484;9.726;2022-11-11T13:36:31;25.00;91.90
13052;DHT22;6592;47.484;9.726;2022-11-11T13:39:06;24.40;91.70
13052;DHT22;6592;47.484;9.726;2022-11-11T13:41:36;24.90;91.80
13052;DHT22;6592;47.484;9.726;2022-11-11T13:44:06;25.20;92.40
13052;DHT22;6592;47.484;9.726;2022-11-11T13:46:35;25.60;91.10
13052;DHT22;6592;47.484;9.726;2022-11-11T13:49:06;25.50;90.00
13052;DHT22;6592;47.484;9.726;2022-11-11T13:51:36;25.30;90.30
13052;DHT22;6592;47.484;9.726;2022-11-11T13:54:05;24.70;90.60
13052;DHT22;6592;47.484;9.726;2022-11-11T13:56:35;24.50;91.20
13052;DHT22;6592;47.484;9.726;2022-11-11T13:59:05;23.80;91.30
13052;DHT22;6592;47.484;9.726;2022-11-11T14:01:33;23.40;91.80
13052;DHT22;6592;47.484;9.726;2022-11-11T14:04:08;22.90;92.00
13052;DHT22;6592;47.484;9.726;2022-11-11T14:06:43;22.50;92.70
13052;DHT22;6592;47.484;9.726;2022-11-11T14:12:20;21.40;94.10
13052;DHT22;6592;47.484;9.726;2022-11-11T14:14:55;21.10;94.80
13052;DHT22;6592;47.484;9.726;2022-11-11T14:17:23;20.20;95.80
13052;DHT22;6592;47.484;9.726;2022-11-11T14:19:52;19.70;96.90
13052;DHT22;6592;47.484;9.726;2022-11-11T14:22:26;19.40;97.50
13052;DHT22;6592;47.484;9.726;2022-11-11T14:24:55;19.10;98.10
13052;DHT22;6592;47.484;9.726;2022-11-11T14:27:36;18.80;99.00
13052;DHT22;6592;47.484;9.726;2022-11-11T14:30:25;18.60;99.70
13052;DHT22;6592;47.484;9.726;2022-11-11T14:32:53;18.30;99.90
13052;DHT22;6592;47.484;9.726;2022-11-11T14:35:25;17.90;99.90
13052;DHT22;6592;47.484;9.726;2022-11-11T14:40:55;17.10;99.90
13052;DHT22;6592;47.484;9.726;2022-11-11T14:43:33;17.00;99.90
13052;DHT22;6592;47.484;9.726;2022-11-11T14:46:04;16.70;99.90
13052;DHT22;6592;47.484;9.726;2022-11-11T14:54:30;15.70;99.90
13052;DHT22;6592;47.484;9.726;2022-11-11T14:57:01;15.50;99.90
13052;DHT22;6592;47.484;9.726;2022-11-11T14:59:31;15.30;99.90
13052;DHT22;6592;47.484;9.726;2022-11-11T15:02:00;15.10;99.90
13052;DHT22;6592;47.484;9.726;2022-11-11T15:04:35;14.90;99.90
13052;DHT22;6592;47.484;9.726;2022-11-11T15:07:03;14.70;99.90
13052;DHT22;6592;47.484;9.726;2022-11-11T15:09:47;14.50;99.90
13052;DHT22;6592;47.484;9.726;2022-11-11T15:12:20;14.40;99.90
13052;DHT22;6592;47.484;9.726;2022-11-11T15:14:52;14.10;99.90
13052;DHT22;6592;47.484;9.726;2022-11-11T15:17:25;14.00;99.90
13052;DHT22;6592;47.484;9.726;2022-11-11T15:19:58;13.80;99.90
13052;DHT22;6592;47.484;9.726;2022-11-11T15:22:33;13.60;99.90
13052;DHT22;6592;47.484;9.726;2022-11-11T15:25:10;13.40;99.90
13052;DHT22;6592;47.484;9.726;2022-11-11T15:27:42;13.30;99.90
13052;DHT22;6592;47.484;9.726;2022-11-11T15:30:12;13.20;99.90
13052;DHT22;6592;47.484;9.726;2022-11-11T15:32:46;13.00;99.90
13052;DHT22;6592;47.484;9.726;2022-11-11T15:35:21;12.80;99.90
13052;DHT22;6592;47.484;9.726;2022-11-11T15:37:51;12.60;99.90
13052;DHT22;6592;47.484;9.726;2022-11-11T15:40:19;12.40;99.90
13052;DHT22;6592;47.484;9.726;2022-11-11T15:42:47;12.20;99.90
13052;DHT22;6592;47.484;9.726;2022-11-11T15:45:19;12.00;99.90
13052;DHT22;6592;47.484;9.726;2022-11-11T15:47:49;11.70;99.90
13052;DHT22;6592;47.484;9.726;2022-11-11T15:50:28;11.60;99.90
13052;DHT22;6592;47.484;9.726;2022-11-11T15:52:57;11.40;99.90
13052;DHT22;6592;47.484;9.726;2022-11-11T15:55:35;11.20;99.90
13052;DHT22;6592;47.484;9.726;2022-11-11T15:58:11;11.10;99.90
13052;DHT22;6592;47.484;9.726;2022-11-11T16:00:41;11.00;99.90
13052;DHT22;6592;47.484;9.726;2022-11-11T16:03:14;10.80;99.90
13052;DHT22;6592;47.484;9.726;2022-11-11T16:05:42;10.70;99.90
13052;DHT22;6592;47.484;9.726;2022-11-11T16:08:11;10.60;99.90
13052;DHT22;6592;47.484;9.726;2022-11-11T16:10:43;10.50;99.90
13052;DHT22;6592;47.484;9.726;2022-11-11T16:13:12;10.10;99.90
13052;DHT22;6592;47.484;9.726;2022-11-11T16:15:41;10.30;99.90
13052;DHT22;6592;47.484;9.726;2022-11-11T16:18:12;10.20;99.90
13052;DHT22;6592;47.484;9.726;2022-11-11T16:20:45;10.10;99.90
13052;DHT22;6592;47.484;9.726;2022-11-11T16:23:16;10.00;99.90
13052;DHT22;6592;47.484;9.726;2022-11-11T16:25:44;9.90;99.90
13052;DHT22;6592;47.484;9.726;2022-11-11T16:28:19;9.90;99.90
13052;DHT22;6592;47.484;9.726;2022-11-11T16:30:47;9.90;99.90
13052;DHT22;6592;47.484;9.726;2022-11-11T16:33:18;9.80;99.90
13052;DHT22;6592;47.484;9.726;2022-11-11T16:35:49;9.70;99.90
13052;DHT22;6592;47.484;9.726;2022-11-11T16:38:29;9.50;99.90
13052;DHT22;6592;47.484;9.726;2022-11-11T16:40:57;9.60;99.90